sensor_id;sensor_type;location;lat;lon;timestamp;pressure;altitude;pressure_sealevel;temperature;humidity
22580;BME280;11456;47.030;15.396;2023-05-02T00:01:28;97454.50;;;14.06;78.60
22580;BME280;11456;47.030;15.396;2023-05-02T00:03:55;97451.09;;;14.12;77.76
22580;BME280;11456;47.030;15.396;2023-05-02T00:06:22;97447.34;;;14.13;77.85
22580;BME280;11456;47.030;15.396;2023-05-02T00:08:49;97443.72;;;13.98;79.38
22580;BME280;11456;47.030;15.396;2023-05-02T00:11:15;97446.09;;;14.01;79.76
22580;BME280;11456;47.030;15.396;2023-05-02T00:13:42;97443.13;;;13.88;80.52
22580;BME280;11456;47.030;15.396;2023-05-02T00:16:09;97442.00;;;13.74;81.25
22580;BME280;11456;47.030;15.396;2023-05-02T00:18:36;97438.72;;;13.87;80.84
22580;BME280;11456;47.030;15.396;2023-05-02T00:21:02;97438.69;;;13.95;79.12
22580;BME280;11456;47.030;15.396;2023-05-02T00:23:29;97435.91;;;14.03;78.86
22580;BME280;11456;47.030;15.396;2023-05-02T00:25:55;97427.94;;;13.79;80.53
22580;BME280;11456;47.030;15.396;2023-05-02T00:28:22;97434.66;;;13.83;80.31
22580;BME280;11456;47.030;15.396;2023-05-02T00:30:48;97423.84;;;13.83;80.27
22580;BME280;11456;47.030;15.396;2023-05-02T00:33:15;97419.63;;;13.80;80.05
22580;BME280;11456;47.030;15.396;2023-05-02T00:35:42;97417.22;;;13.62;81.17
22580;BME280;11456;47.030;15.396;2023-05-02T00:38:08;97416.13;;;13.72;80.76
22580;BME280;11456;47.030;15.396;2023-05-02T00:40:45;97423.34;;;13.79;79.79
22580;BME280;11456;47.030;15.396;2023-05-02T00:43:12;97429.75;;;13.86;79.79
22580;BME280;11456;47.030;15.396;2023-05-02T00:45:39;97416.25;;;13.78;80.32
22580;BME280;11456;47.030;15.396;2023-05-02T00:48:07;97420.19;;;13.76;80.49
22580;BME280;11456;47.030;15.396;2023-05-02T00:50:37;97419.50;;;13.74;79.88
22580;BME280;11456;47.030;15.396;2023-05-02T00:53:06;97423.50;;;13.86;79.33
22580;BME280;11456;47.030;15.396;2023-05-02T00:55:33;97419.78;;;13.87;79.43
22580;BME280;11456;47.030;15.396;2023-05-02T00:58:00;97418.94;;;13.86;80.26
22580;BME280;11456;47.030;15.396;2023-05-02T01:00:29;97416.63;;;13.75;80.54
22580;BME280;11456;47.030;15.396;2023-05-02T01:03:04;97414.44;;;13.71;80.71
22580;BME280;11456;47.030;15.396;2023-05-02T01:05:38;97410.41;;;13.67;81.34
22580;BME280;11456;47.030;15.396;2023-05-02T01:08:16;97416.50;;;13.69;82.01
22580;BME280;11456;47.030;15.396;2023-05-02T01:10:47;97414.13;;;13.65;82.16
22580;BME280;11456;47.030;15.396;2023-05-02T01:15:44;97412.13;;;13.59;82.29
22580;BME280;11456;47.030;15.396;2023-05-02T01:18:12;97411.44;;;13.65;81.94
22580;BME280;11456;47.030;15.396;2023-05-02T01:20:41;97405.75;;;13.52;82.46
22580;BME280;11456;47.030;15.396;2023-05-02T01:24:11;97402.63;;;13.63;81.82
22580;BME280;11456;47.030;15.396;2023-05-02T01:26:09;97409.03;;;13.71;81.63
22580;BME280;11456;47.030;15.396;2023-05-02T01:28:59;97407.97;;;13.80;80.73
22580;BME280;11456;47.030;15.396;2023-05-02T01:31:28;97405.69;;;13.69;81.72
22580;BME280;11456;47.030;15.396;2023-05-02T01:33:56;97405.69;;;13.69;81.67
22580;BME280;11456;47.030;15.396;2023-05-02T01:36:24;97400.59;;;13.65;82.74
22580;BME280;11456;47.030;15.396;2023-05-02T01:38:53;97396.72;;;13.68;81.82
22580;BME280;11456;47.030;15.396;2023-05-02T01:41:21;97399.31;;;13.53;83.60
22580;BME280;11456;47.030;15.396;2023-05-02T01:43:50;97392.19;;;13.60;83.00
22580;BME280;11456;47.030;15.396;2023-05-02T01:46:17;97393.50;;;13.64;82.91
22580;BME280;11456;47.030;15.396;2023-05-02T01:48:44;97392.84;;;13.62;82.24
22580;BME280;11456;47.030;15.396;2023-05-02T01:51:12;97394.13;;;13.75;81.72
22580;BME280;11456;47.030;15.396;2023-05-02T01:53:40;97401.84;;;13.86;80.52
22580;BME280;11456;47.030;15.396;2023-05-02T01:56:07;97392.69;;;13.87;81.01
22580;BME280;11456;47.030;15.396;2023-05-02T01:58:33;97399.16;;;13.78;81.09
22580;BME280;11456;47.030;15.396;2023-05-02T02:01:01;97393.75;;;13.78;81.25
22580;BME280;11456;47.030;15.396;2023-05-02T02:03:30;97395.50;;;13.71;81.74
22580;BME280;11456;47.030;15.396;2023-05-02T02:05:57;97391.34;;;13.60;82.84
22580;BME280;11456;47.030;15.396;2023-05-02T02:08:24;97389.44;;;13.69;82.83
22580;BME280;11456;47.030;15.396;2023-05-02T02:10:53;97393.16;;;13.68;82.74
22580;BME280;11456;47.030;15.396;2023-05-02T02:13:26;97394.47;;;13.72;82.70
22580;BME280;11456;47.030;15.396;2023-05-02T02:15:56;97386.34;;;13.72;83.08
22580;BME280;11456;47.030;15.396;2023-05-02T02:18:24;97392.84;;;13.62;83.37
22580;BME280;11456;47.030;15.396;2023-05-02T02:20:53;97390.75;;;13.73;83.03
22580;BME280;11456;47.030;15.396;2023-05-02T02:23:21;97397.13;;;13.80;81.92
22580;BME280;11456;47.030;15.396;2023-05-02T02:25:49;97394.84;;;13.69;83.16
22580;BME280;11456;47.030;15.396;2023-05-02T02:28:17;97390.59;;;13.74;82.94
22580;BME280;11456;47.030;15.396;2023-05-02T02:30:43;97386.66;;;13.77;83.31
22580;BME280;11456;47.030;15.396;2023-05-02T02:33:09;97390.78;;;13.64;83.87
22580;BME280;11456;47.030;15.396;2023-05-02T02:35:37;97388.34;;;13.78;83.56
22580;BME280;11456;47.030;15.396;2023-05-02T02:38:10;97390.88;;;13.79;82.92
22580;BME280;11456;47.030;15.396;2023-05-02T02:40:55;97396.03;;;13.66;83.38
22580;BME280;11456;47.030;15.396;2023-05-02T02:43:40;97392.63;;;13.72;84.05
22580;BME280;11456;47.030;15.396;2023-05-02T02:48:56;97394.59;;;13.55;84.44
22580;BME280;11456;47.030;15.396;2023-05-02T02:54:13;97399.59;;;13.67;84.77
22580;BME280;11456;47.030;15.396;2023-05-02T02:57:14;97398.50;;;13.45;85.66
22580;BME280;11456;47.030;15.396;2023-05-02T02:59:45;97398.31;;;13.54;86.44
22580;BME280;11456;47.030;15.396;2023-05-02T03:02:14;97401.84;;;13.55;86.01
22580;BME280;11456;47.030;15.396;2023-05-02T03:04:44;97408.13;;;13.47;86.25
22580;BME280;11456;47.030;15.396;2023-05-02T03:07:12;97402.00;;;13.61;85.69
22580;BME280;11456;47.030;15.396;2023-05-02T03:09:39;97400.28;;;13.60;85.53
22580;BME280;11456;47.030;15.396;2023-05-02T03:12:08;97403.13;;;13.67;85.51
22580;BME280;11456;47.030;15.396;2023-05-02T03:14:37;97406.72;;;13.59;86.23
22580;BME280;11456;47.030;15.396;2023-05-02T03:17:04;97401.94;;;13.70;86.36
22580;BME280;11456;47.030;15.396;2023-05-02T03:19:31;97412.13;;;13.59;87.23
22580;BME280;11456;47.030;15.396;2023-05-02T03:21:58;97415.06;;;13.81;85.08
22580;BME280;11456;47.030;15.396;2023-05-02T03:24:24;97412.06;;;13.76;85.05
22580;BME280;11456;47.030;15.396;2023-05-02T03:26:53;97415.13;;;13.73;86.86
22580;BME280;11456;47.030;15.396;2023-05-02T03:29:24;97413.13;;;13.67;87.12
22580;BME280;11456;47.030;15.396;2023-05-02T03:31:51;97414.09;;;13.74;86.60
22580;BME280;11456;47.030;15.396;2023-05-02T03:34:19;97407.75;;;13.58;88.45
22580;BME280;11456;47.030;15.396;2023-05-02T03:36:49;97415.59;;;13.45;89.91
22580;BME280;11456;47.030;15.396;2023-05-02T03:39:15;97425.00;;;13.57;89.75
22580;BME280;11456;47.030;15.396;2023-05-02T03:41:43;97423.00;;;13.51;91.77
22580;BME280;11456;47.030;15.396;2023-05-02T03:44:13;97421.97;;;13.52;91.04
22580;BME280;11456;47.030;15.396;2023-05-02T03:46:40;97430.13;;;13.44;92.06
22580;BME280;11456;47.030;15.396;2023-05-02T03:49:09;97425.84;;;13.58;91.57
22580;BME280;11456;47.030;15.396;2023-05-02T03:51:39;97424.66;;;13.60;92.00
22580;BME280;11456;47.030;15.396;2023-05-02T03:54:06;97425.69;;;13.51;92.53
22580;BME280;11456;47.030;15.396;2023-05-02T03:56:38;97427.38;;;13.52;92.50
22580;BME280;11456;47.030;15.396;2023-05-02T03:59:18;97429.09;;;13.45;93.29
22580;BME280;11456;47.030;15.396;2023-05-02T04:01:47;97424.72;;;13.44;93.62
22580;BME280;11456;47.030;15.396;2023-05-02T04:04:16;97417.25;;;13.54;92.22
22580;BME280;11456;47.030;15.396;2023-05-02T04:06:48;97421.47;;;13.57;92.32
22580;BME280;11456;47.030;15.396;2023-05-02T04:09:15;97426.03;;;13.56;92.21
22580;BME280;11456;47.030;15.396;2023-05-02T04:11:50;97422.75;;;13.69;91.65
22580;BME280;11456;47.030;15.396;2023-05-02T04:14:17;97429.00;;;13.70;91.53
22580;BME280;11456;47.030;15.396;2023-05-02T04:16:48;97431.66;;;13.78;91.66
22580;BME280;11456;47.030;15.396;2023-05-02T04:19:20;97432.03;;;13.75;90.88
22580;BME280;11456;47.030;15.396;2023-05-02T04:21:47;97432.16;;;13.81;89.97
22580;BME280;11456;47.030;15.396;2023-05-02T04:24:14;97433.97;;;13.89;90.10
22580;BME280;11456;47.030;15.396;2023-05-02T04:26:41;97442.41;;;13.94;90.81
22580;BME280;11456;47.030;15.396;2023-05-02T04:29:10;97428.78;;;13.79;91.50
22580;BME280;11456;47.030;15.396;2023-05-02T04:31:37;97433.72;;;13.76;92.49
22580;BME280;11456;47.030;15.396;2023-05-02T04:34:05;97430.34;;;13.74;93.33
22580;BME280;11456;47.030;15.396;2023-05-02T04:36:36;97434.06;;;13.73;93.50
22580;BME280;11456;47.030;15.396;2023-05-02T04:39:04;97445.50;;;13.83;93.08
22580;BME280;11456;47.030;15.396;2023-05-02T04:41:35;97441.75;;;13.84;92.79
22580;BME280;11456;47.030;15.396;2023-05-02T04:44:04;97443.47;;;13.85;91.32
22580;BME280;11456;47.030;15.396;2023-05-02T04:46:33;97444.03;;;13.72;91.50
22580;BME280;11456;47.030;15.396;2023-05-02T04:48:59;97456.81;;;13.55;93.08
22580;BME280;11456;47.030;15.396;2023-05-02T04:51:26;97459.38;;;13.49;93.82
22580;BME280;11456;47.030;15.396;2023-05-02T04:53:54;97464.69;;;13.65;93.63
22580;BME280;11456;47.030;15.396;2023-05-02T04:56:20;97462.16;;;13.63;94.67
22580;BME280;11456;47.030;15.396;2023-05-02T04:58:48;97471.31;;;13.62;95.01
22580;BME280;11456;47.030;15.396;2023-05-02T05:01:15;97472.97;;;13.72;94.33
22580;BME280;11456;47.030;15.396;2023-05-02T05:03:43;97477.94;;;13.91;94.58
22580;BME280;11456;47.030;15.396;2023-05-02T05:06:13;97473.66;;;13.96;94.89
22580;BME280;11456;47.030;15.396;2023-05-02T05:08:40;97478.19;;;14.04;94.40
22580;BME280;11456;47.030;15.396;2023-05-02T05:11:06;97479.59;;;14.00;93.67
22580;BME280;11456;47.030;15.396;2023-05-02T05:13:34;97477.63;;;14.17;91.92
22580;BME280;11456;47.030;15.396;2023-05-02T05:16:01;97480.50;;;14.15;94.55
22580;BME280;11456;47.030;15.396;2023-05-02T05:18:31;97481.63;;;13.98;96.62
22580;BME280;11456;47.030;15.396;2023-05-02T05:20:58;97483.47;;;13.67;98.58
22580;BME280;11456;47.030;15.396;2023-05-02T05:23:24;97479.66;;;13.84;98.43
22580;BME280;11456;47.030;15.396;2023-05-02T05:25:51;97476.84;;;14.08;93.86
22580;BME280;11456;47.030;15.396;2023-05-02T05:28:17;97475.44;;;14.43;89.40
22580;BME280;11456;47.030;15.396;2023-05-02T05:30:45;97475.72;;;14.48;88.80
22580;BME280;11456;47.030;15.396;2023-05-02T05:33:15;97485.09;;;14.46;86.57
22580;BME280;11456;47.030;15.396;2023-05-02T05:35:43;97489.84;;;14.35;86.49
22580;BME280;11456;47.030;15.396;2023-05-02T05:38:09;97497.22;;;14.50;86.54
22580;BME280;11456;47.030;15.396;2023-05-02T05:40:38;97495.31;;;14.58;84.70
22580;BME280;11456;47.030;15.396;2023-05-02T05:43:07;97501.31;;;14.68;83.48
22580;BME280;11456;47.030;15.396;2023-05-02T05:45:36;97504.59;;;14.64;83.08
22580;BME280;11456;47.030;15.396;2023-05-02T05:48:03;97507.97;;;14.66;83.20
22580;BME280;11456;47.030;15.396;2023-05-02T05:50:34;97510.13;;;14.48;82.44
22580;BME280;11456;47.030;15.396;2023-05-02T05:53:01;97513.16;;;14.53;83.14
22580;BME280;11456;47.030;15.396;2023-05-02T05:55:28;97517.16;;;14.57;83.61
22580;BME280;11456;47.030;15.396;2023-05-02T05:57:55;97523.72;;;14.62;83.02
22580;BME280;11456;47.030;15.396;2023-05-02T06:00:22;97514.03;;;14.14;85.14
22580;BME280;11456;47.030;15.396;2023-05-02T06:02:50;97516.47;;;14.40;84.67
22580;BME280;11456;47.030;15.396;2023-05-02T06:05:34;97521.84;;;14.09;85.85
22580;BME280;11456;47.030;15.396;2023-05-02T06:08:01;97525.63;;;14.31;86.23
22580;BME280;11456;47.030;15.396;2023-05-02T06:10:28;97531.78;;;14.48;85.44
22580;BME280;11456;47.030;15.396;2023-05-02T06:12:56;97536.03;;;14.50;84.25
22580;BME280;11456;47.030;15.396;2023-05-02T06:15:27;97542.16;;;14.67;85.46
22580;BME280;11456;47.030;15.396;2023-05-02T06:17:54;97541.31;;;14.66;85.21
22580;BME280;11456;47.030;15.396;2023-05-02T06:20:21;97543.25;;;14.58;85.88
22580;BME280;11456;47.030;15.396;2023-05-02T06:22:47;97549.03;;;14.55;86.45
22580;BME280;11456;47.030;15.396;2023-05-02T06:25:14;97557.00;;;14.17;88.81
22580;BME280;11456;47.030;15.396;2023-05-02T06:27:40;97544.75;;;14.29;90.13
22580;BME280;11456;47.030;15.396;2023-05-02T06:30:07;97545.03;;;14.42;89.72
22580;BME280;11456;47.030;15.396;2023-05-02T06:32:34;97557.28;;;14.30;89.96
22580;BME280;11456;47.030;15.396;2023-05-02T06:35:00;97556.56;;;14.36;90.99
22580;BME280;11456;47.030;15.396;2023-05-02T06:37:31;97559.50;;;14.58;89.64
22580;BME280;11456;47.030;15.396;2023-05-02T06:39:57;97562.09;;;14.51;90.37
22580;BME280;11456;47.030;15.396;2023-05-02T06:42:24;97561.97;;;14.36;89.96
22580;BME280;11456;47.030;15.396;2023-05-02T06:44:51;97563.13;;;14.50;90.68
22580;BME280;11456;47.030;15.396;2023-05-02T06:47:17;97555.13;;;14.57;88.54
22580;BME280;11456;47.030;15.396;2023-05-02T06:49:44;97554.09;;;14.58;89.35
22580;BME280;11456;47.030;15.396;2023-05-02T06:52:11;97557.09;;;14.63;88.90
22580;BME280;11456;47.030;15.396;2023-05-02T06:54:37;97552.03;;;14.60;88.39
22580;BME280;11456;47.030;15.396;2023-05-02T06:57:04;97550.28;;;14.67;89.46
22580;BME280;11456;47.030;15.396;2023-05-02T06:59:31;97547.78;;;14.65;88.09
22580;BME280;11456;47.030;15.396;2023-05-02T07:01:57;97546.78;;;14.81;88.05
22580;BME280;11456;47.030;15.396;2023-05-02T07:04:24;97543.66;;;14.92;87.58
22580;BME280;11456;47.030;15.396;2023-05-02T07:06:51;97542.84;;;15.06;87.26
22580;BME280;11456;47.030;15.396;2023-05-02T07:09:18;97551.50;;;14.87;86.00
22580;BME280;11456;47.030;15.396;2023-05-02T07:11:44;97549.84;;;15.01;86.57
22580;BME280;11456;47.030;15.396;2023-05-02T07:14:11;97547.31;;;14.99;85.24
22580;BME280;11456;47.030;15.396;2023-05-02T07:16:37;97553.91;;;14.59;87.69
22580;BME280;11456;47.030;15.396;2023-05-02T07:19:04;97552.41;;;14.57;87.41
22580;BME280;11456;47.030;15.396;2023-05-02T07:21:32;97549.88;;;14.78;86.20
22580;BME280;11456;47.030;15.396;2023-05-02T07:23:58;97559.50;;;15.03;85.16
22580;BME280;11456;47.030;15.396;2023-05-02T07:26:26;97559.63;;;14.64;84.49
22580;BME280;11456;47.030;15.396;2023-05-02T07:28:53;97574.81;;;14.96;85.06
22580;BME280;11456;47.030;15.396;2023-05-02T07:31:19;97574.81;;;14.96;83.93
22580;BME280;11456;47.030;15.396;2023-05-02T07:33:46;97579.97;;;15.29;83.75
22580;BME280;11456;47.030;15.396;2023-05-02T07:36:12;97571.63;;;15.53;82.82
22580;BME280;11456;47.030;15.396;2023-05-02T07:38:39;97573.00;;;15.49;83.62
22580;BME280;11456;47.030;15.396;2023-05-02T07:41:06;97584.28;;;15.38;83.06
22580;BME280;11456;47.030;15.396;2023-05-02T07:43:32;97581.72;;;15.59;81.66
22580;BME280;11456;47.030;15.396;2023-05-02T07:46:02;97580.16;;;15.79;80.75
22580;BME280;11456;47.030;15.396;2023-05-02T07:48:29;97580.25;;;15.71;79.83
22580;BME280;11456;47.030;15.396;2023-05-02T07:51:04;97589.91;;;15.51;79.92
22580;BME280;11456;47.030;15.396;2023-05-02T07:53:31;97584.72;;;15.64;80.57
22580;BME280;11456;47.030;15.396;2023-05-02T07:55:57;97585.38;;;15.66;80.51
22580;BME280;11456;47.030;15.396;2023-05-02T07:58:23;97583.97;;;15.70;79.52
22580;BME280;11456;47.030;15.396;2023-05-02T08:00:52;97593.53;;;15.95;78.21
22580;BME280;11456;47.030;15.396;2023-05-02T08:03:18;97601.75;;;15.58;79.12
22580;BME280;11456;47.030;15.396;2023-05-02T08:05:45;97591.56;;;15.60;80.13
22580;BME280;11456;47.030;15.396;2023-05-02T08:08:12;97596.28;;;16.46;76.03
22580;BME280;11456;47.030;15.396;2023-05-02T08:10:38;97602.16;;;15.84;77.04
22580;BME280;11456;47.030;15.396;2023-05-02T08:13:05;97601.94;;;16.00;78.35
22580;BME280;11456;47.030;15.396;2023-05-02T08:15:31;97608.13;;;15.94;77.31
22580;BME280;11456;47.030;15.396;2023-05-02T08:17:58;97601.59;;;15.74;76.90
22580;BME280;11456;47.030;15.396;2023-05-02T08:20:25;97601.00;;;15.64;78.19
22580;BME280;11456;47.030;15.396;2023-05-02T08:22:51;97600.44;;;15.54;78.69
22580;BME280;11456;47.030;15.396;2023-05-02T08:25:18;97604.41;;;15.66;78.83
22580;BME280;11456;47.030;15.396;2023-05-02T08:27:44;97602.84;;;14.89;79.51
22580;BME280;11456;47.030;15.396;2023-05-02T08:30:11;97610.66;;;15.44;79.46
22580;BME280;11456;47.030;15.396;2023-05-02T08:32:38;97609.63;;;15.53;78.01
22580;BME280;11456;47.030;15.396;2023-05-02T08:35:04;97605.34;;;15.73;78.21
22580;BME280;11456;47.030;15.396;2023-05-02T08:37:31;97609.53;;;15.76;78.59
22580;BME280;11456;47.030;15.396;2023-05-02T08:39:59;97606.00;;;14.92;80.82
22580;BME280;11456;47.030;15.396;2023-05-02T08:42:26;97608.69;;;15.38;79.86
22580;BME280;11456;47.030;15.396;2023-05-02T08:44:53;97611.19;;;15.62;78.84
22580;BME280;11456;47.030;15.396;2023-05-02T08:47:20;97615.44;;;16.09;77.36
22580;BME280;11456;47.030;15.396;2023-05-02T08:49:47;97609.13;;;16.52;78.04
22580;BME280;11456;47.030;15.396;2023-05-02T08:52:15;97610.75;;;17.04;74.14
22580;BME280;11456;47.030;15.396;2023-05-02T08:54:44;97610.97;;;17.02;73.28
22580;BME280;11456;47.030;15.396;2023-05-02T08:57:11;97617.38;;;17.37;72.04
22580;BME280;11456;47.030;15.396;2023-05-02T08:59:38;97612.09;;;17.08;71.72
22580;BME280;11456;47.030;15.396;2023-05-02T09:02:09;97607.16;;;17.18;72.80
22580;BME280;11456;47.030;15.396;2023-05-02T09:04:38;97613.75;;;16.37;72.28
22580;BME280;11456;47.030;15.396;2023-05-02T09:07:06;97612.97;;;16.58;74.85
22580;BME280;11456;47.030;15.396;2023-05-02T09:09:33;97622.69;;;16.81;72.84
22580;BME280;11456;47.030;15.396;2023-05-02T09:12:00;97622.69;;;16.81;70.61
22580;BME280;11456;47.030;15.396;2023-05-02T09:14:27;97629.28;;;16.58;71.49
22580;BME280;11456;47.030;15.396;2023-05-02T09:16:57;97638.84;;;16.39;71.49
22580;BME280;11456;47.030;15.396;2023-05-02T09:19:24;97643.47;;;16.24;72.02
22580;BME280;11456;47.030;15.396;2023-05-02T09:21:51;97641.69;;;16.31;72.24
22580;BME280;11456;47.030;15.396;2023-05-02T09:24:19;97640.91;;;16.66;70.29
22580;BME280;11456;47.030;15.396;2023-05-02T09:27:02;97637.19;;;16.89;71.21
22580;BME280;11456;47.030;15.396;2023-05-02T09:29:30;97632.94;;;17.01;69.92
22580;BME280;11456;47.030;15.396;2023-05-02T09:32:02;97633.44;;;17.11;70.58
22580;BME280;11456;47.030;15.396;2023-05-02T09:34:29;97640.84;;;17.38;68.75
22580;BME280;11456;47.030;15.396;2023-05-02T09:36:59;97636.34;;;16.23;71.84
22580;BME280;11456;47.030;15.396;2023-05-02T09:39:26;97637.47;;;16.94;71.03
22580;BME280;11456;47.030;15.396;2023-05-02T09:41:54;97622.09;;;17.29;68.91
22580;BME280;11456;47.030;15.396;2023-05-02T09:44:25;97635.63;;;17.22;69.48
22580;BME280;11456;47.030;15.396;2023-05-02T09:46:55;97631.63;;;17.39;68.44
22580;BME280;11456;47.030;15.396;2023-05-02T09:49:56;97631.75;;;17.52;68.33
22580;BME280;11456;47.030;15.396;2023-05-02T09:52:16;97627.28;;;17.45;67.20
22580;BME280;11456;47.030;15.396;2023-05-02T09:54:43;97625.41;;;17.24;68.39
22580;BME280;11456;47.030;15.396;2023-05-02T09:57:11;97629.53;;;17.41;68.36
22580;BME280;11456;47.030;15.396;2023-05-02T09:59:38;97621.66;;;17.46;67.99
22580;BME280;11456;47.030;15.396;2023-05-02T10:02:05;97628.44;;;17.78;66.40
22580;BME280;11456;47.030;15.396;2023-05-02T10:04:34;97628.16;;;17.67;66.44
22580;BME280;11456;47.030;15.396;2023-05-02T10:07:02;97627.03;;;17.89;67.46
22580;BME280;11456;47.030;15.396;2023-05-02T10:09:29;97610.03;;;18.21;64.34
22580;BME280;11456;47.030;15.396;2023-05-02T10:11:58;97615.16;;;18.37;65.06
22580;BME280;11456;47.030;15.396;2023-05-02T10:14:30;97609.84;;;18.64;63.35
22580;BME280;11456;47.030;15.396;2023-05-02T10:17:00;97614.44;;;18.57;61.36
22580;BME280;11456;47.030;15.396;2023-05-02T10:19:37;97613.59;;;18.63;62.75
22580;BME280;11456;47.030;15.396;2023-05-02T10:22:04;97606.00;;;18.52;62.47
22580;BME280;11456;47.030;15.396;2023-05-02T10:24:32;97622.78;;;18.49;64.34
22580;BME280;11456;47.030;15.396;2023-05-02T10:26:59;97609.38;;;18.54;61.82
22580;BME280;11456;47.030;15.396;2023-05-02T10:29:27;97621.91;;;18.41;61.66
22580;BME280;11456;47.030;15.396;2023-05-02T10:31:55;97616.00;;;18.38;60.55
22580;BME280;11456;47.030;15.396;2023-05-02T10:34:23;97607.69;;;18.53;61.56
22580;BME280;11456;47.030;15.396;2023-05-02T10:36:49;97609.69;;;18.37;60.94
22580;BME280;11456;47.030;15.396;2023-05-02T10:39:16;97619.75;;;18.30;61.13
22580;BME280;11456;47.030;15.396;2023-05-02T10:41:44;97615.06;;;18.24;63.00
22580;BME280;11456;47.030;15.396;2023-05-02T10:44:11;97610.94;;;18.28;63.88
22580;BME280;11456;47.030;15.396;2023-05-02T10:46:38;97611.16;;;18.33;62.51
22580;BME280;11456;47.030;15.396;2023-05-02T10:49:12;97621.41;;;18.31;60.22
22580;BME280;11456;47.030;15.396;2023-05-02T10:51:39;97628.16;;;17.67;63.00
22580;BME280;11456;47.030;15.396;2023-05-02T10:57:04;97633.22;;;17.76;63.18
22580;BME280;11456;47.030;15.396;2023-05-02T10:59:30;97621.16;;;17.85;63.36
22580;BME280;11456;47.030;15.396;2023-05-02T11:01:56;97633.28;;;17.83;62.15
22580;BME280;11456;47.030;15.396;2023-05-02T11:04:23;97625.50;;;17.80;62.09
22580;BME280;11456;47.030;15.396;2023-05-02T11:11:53;97623.66;;;17.87;62.73
22580;BME280;11456;47.030;15.396;2023-05-02T11:19:27;97628.31;;;17.93;62.61
22580;BME280;11456;47.030;15.396;2023-05-02T11:24:42;97624.25;;;18.10;60.58
22580;BME280;11456;47.030;15.396;2023-05-02T11:30:16;97630.09;;;18.07;61.88
22580;BME280;11456;47.030;15.396;2023-05-02T11:35:22;97621.28;;;18.12;61.70
22580;BME280;11456;47.030;15.396;2023-05-02T11:38:01;97628.09;;;18.22;62.22
22580;BME280;11456;47.030;15.396;2023-05-02T11:40:29;97623.97;;;18.39;63.12
22580;BME280;11456;47.030;15.396;2023-05-02T11:42:56;97624.16;;;17.97;63.73
22580;BME280;11456;47.030;15.396;2023-05-02T11:45:35;97639.84;;;17.95;63.12
22580;BME280;11456;47.030;15.396;2023-05-02T11:48:05;97650.16;;;17.99;61.87
22580;BME280;11456;47.030;15.396;2023-05-02T11:50:33;97649.06;;;17.94;62.50
22580;BME280;11456;47.030;15.396;2023-05-02T11:52:59;97653.53;;;18.01;62.50
22580;BME280;11456;47.030;15.396;2023-05-02T11:55:26;97645.28;;;17.67;63.07
22580;BME280;11456;47.030;15.396;2023-05-02T11:57:52;97643.81;;;17.92;63.70
22580;BME280;11456;47.030;15.396;2023-05-02T12:00:19;97645.63;;;17.79;62.97
22580;BME280;11456;47.030;15.396;2023-05-02T12:02:52;97656.22;;;17.95;64.49
22580;BME280;11456;47.030;15.396;2023-05-02T12:05:26;97655.44;;;17.80;63.51
22580;BME280;11456;47.030;15.396;2023-05-02T12:07:53;97655.81;;;17.70;64.00
22580;BME280;11456;47.030;15.396;2023-05-02T12:10:20;97655.97;;;17.90;64.03
22580;BME280;11456;47.030;15.396;2023-05-02T12:12:46;97659.44;;;18.05;65.33
22580;BME280;11456;47.030;15.396;2023-05-02T12:15:13;97666.97;;;18.03;63.79
22580;BME280;11456;47.030;15.396;2023-05-02T12:17:39;97659.16;;;18.00;65.09
22580;BME280;11456;47.030;15.396;2023-05-02T12:20:07;97660.53;;;17.83;62.45
22580;BME280;11456;47.030;15.396;2023-05-02T12:22:34;97672.25;;;17.83;63.98
22580;BME280;11456;47.030;15.396;2023-05-02T12:25:01;97671.50;;;17.47;65.11
22580;BME280;11456;47.030;15.396;2023-05-02T12:27:30;97672.47;;;17.18;65.54
22580;BME280;11456;47.030;15.396;2023-05-02T12:29:58;97677.47;;;17.14;66.81
22580;BME280;11456;47.030;15.396;2023-05-02T12:32:34;97675.59;;;17.15;67.61
22580;BME280;11456;47.030;15.396;2023-05-02T12:35:01;97675.28;;;17.10;68.25
22580;BME280;11456;47.030;15.396;2023-05-02T12:37:29;97680.41;;;16.62;71.57
22580;BME280;11456;47.030;15.396;2023-05-02T12:39:55;97687.97;;;16.52;70.85
22580;BME280;11456;47.030;15.396;2023-05-02T12:42:23;97683.84;;;16.56;72.86
22580;BME280;11456;47.030;15.396;2023-05-02T12:44:50;97683.56;;;16.66;71.80
22580;BME280;11456;47.030;15.396;2023-05-02T12:47:22;97681.25;;;16.19;75.57
22580;BME280;11456;47.030;15.396;2023-05-02T12:49:55;97688.44;;;16.41;74.35
22580;BME280;11456;47.030;15.396;2023-05-02T12:55:20;97701.09;;;16.34;72.83
22580;BME280;11456;47.030;15.396;2023-05-02T12:57:49;97706.22;;;16.14;74.79
22580;BME280;11456;47.030;15.396;2023-05-02T13:00:16;97710.78;;;15.84;75.74
22580;BME280;11456;47.030;15.396;2023-05-02T13:02:43;97705.41;;;15.61;78.26
22580;BME280;11456;47.030;15.396;2023-05-02T13:05:16;97707.53;;;15.43;79.27
22580;BME280;11456;47.030;15.396;2023-05-02T13:07:43;97706.69;;;15.43;81.33
22580;BME280;11456;47.030;15.396;2023-05-02T13:10:10;97711.41;;;15.26;82.00
22580;BME280;11456;47.030;15.396;2023-05-02T13:12:37;97713.94;;;15.28;82.41
22580;BME280;11456;47.030;15.396;2023-05-02T13:15:04;97705.13;;;15.25;82.61
22580;BME280;11456;47.030;15.396;2023-05-02T13:17:32;97705.97;;;15.03;83.68
22580;BME280;11456;47.030;15.396;2023-05-02T13:19:58;97710.94;;;15.22;84.00
22580;BME280;11456;47.030;15.396;2023-05-02T13:22:28;97704.91;;;15.35;83.75
22580;BME280;11456;47.030;15.396;2023-05-02T13:24:54;97703.09;;;15.28;82.54
22580;BME280;11456;47.030;15.396;2023-05-02T13:27:21;97713.69;;;15.14;83.26
22580;BME280;11456;47.030;15.396;2023-05-02T13:29:48;97713.94;;;15.28;82.63